createdAt,value
2022-12-22T00:00:13.758Z,0.00
2022-12-22T00:01:06.224Z,0.00
2022-12-22T00:02:06.419Z,0.00
2022-12-22T00:03:06.420Z,0.00
2022-12-22T00:04:06.420Z,0.00
2022-12-22T00:05:06.190Z,0.00
2022-12-22T00:06:06.169Z,0.00
2022-12-22T00:07:06.177Z,0.00
2022-12-22T00:08:06.136Z,0.00
2022-12-22T00:09:06.213Z,0.00
2022-12-22T00:10:06.112Z,0.00
2022-12-22T00:11:06.116Z,0.00
2022-12-22T00:12:06.103Z,0.00
2022-12-22T00:13:06.123Z,0.00
2022-12-22T00:14:06.074Z,0.00
2022-12-22T00:15:06.074Z,0.00
2022-12-22T00:16:06.044Z,0.00
2022-12-22T00:17:06.077Z,0.00
2022-12-22T00:18:06.054Z,0.00
2022-12-22T00:19:06.012Z,0.00
2022-12-22T00:20:06.006Z,0.00
2022-12-22T00:21:06.025Z,0.00
2022-12-22T00:22:05.996Z,0.00
2022-12-22T00:23:05.974Z,0.00
2022-12-22T00:24:06.048Z,0.00
2022-12-22T00:25:05.955Z,0.00
2022-12-22T00:26:05.934Z,0.00
2022-12-22T00:27:05.923Z,0.00
2022-12-22T00:28:05.921Z,0.00
2022-12-22T00:29:05.915Z,0.00
2022-12-22T00:30:05.920Z,0.00
2022-12-22T00:31:06.141Z,0.00
2022-12-22T00:32:05.887Z,0.00
2022-12-22T00:33:05.844Z,0.00
2022-12-22T00:34:05.856Z,0.00
2022-12-22T00:35:05.841Z,0.00
2022-12-22T00:36:05.844Z,0.00
2022-12-22T00:37:05.825Z,0.00
2022-12-22T00:38:05.819Z,0.00
2022-12-22T00:39:05.788Z,0.00
2022-12-22T00:40:05.792Z,0.00
2022-12-22T00:41:05.757Z,0.00
2022-12-22T00:42:05.776Z,0.00
2022-12-22T00:43:05.757Z,0.00
2022-12-22T00:44:05.755Z,0.00
2022-12-22T00:45:05.754Z,0.00
2022-12-22T00:46:05.805Z,0.00
2022-12-22T00:47:05.805Z,0.00
2022-12-22T00:48:05.845Z,0.00
2022-12-22T00:49:05.849Z,0.00
2022-12-22T00:50:05.903Z,0.00
2022-12-22T00:51:06.021Z,0.00
2022-12-22T00:52:05.970Z,0.00
2022-12-22T00:53:05.985Z,0.00
2022-12-22T00:54:05.938Z,0.00
2022-12-22T00:55:05.609Z,0.00
2022-12-22T00:56:05.634Z,0.00
2022-12-22T00:57:05.613Z,0.00
2022-12-22T00:58:05.573Z,0.00
2022-12-22T00:59:05.558Z,0.00
2022-12-22T01:00:05.557Z,0.00
2022-12-22T01:01:05.577Z,0.00
2022-12-22T01:02:05.736Z,0.00
2022-12-22T01:03:05.664Z,0.00
2022-12-22T01:04:05.517Z,0.00
2022-12-22T01:05:05.488Z,0.00
2022-12-22T01:06:05.486Z,0.00
2022-12-22T01:07:05.486Z,0.00
2022-12-22T01:08:05.475Z,0.00
2022-12-22T01:09:05.448Z,0.00
2022-12-22T01:10:05.449Z,0.00
2022-12-22T01:11:05.441Z,0.00
2022-12-22T01:12:05.424Z,0.00
2022-12-22T01:13:05.657Z,0.00
2022-12-22T01:14:05.407Z,0.00
2022-12-22T01:15:05.469Z,0.00
2022-12-22T01:16:05.468Z,0.00
2022-12-22T01:17:05.427Z,0.00
2022-12-22T01:18:05.505Z,0.00
2022-12-22T01:19:05.461Z,0.00
2022-12-22T01:20:05.488Z,0.00
2022-12-22T01:21:05.501Z,0.00
2022-12-22T01:22:05.498Z,0.00
2022-12-22T01:23:05.488Z,0.00
2022-12-22T01:24:05.599Z,0.00
2022-12-22T01:25:05.521Z,0.00
2022-12-22T01:26:05.591Z,0.00
2022-12-22T01:27:05.512Z,0.00
2022-12-22T01:28:05.530Z,0.00
2022-12-22T01:29:05.578Z,0.00
2022-12-22T01:30:05.591Z,0.00
2022-12-22T01:31:05.587Z,0.00
2022-12-22T01:32:05.417Z,0.00
2022-12-22T01:33:05.193Z,0.00
2022-12-22T01:34:05.194Z,0.00
2022-12-22T01:35:05.153Z,0.00
2022-12-22T01:36:05.146Z,0.00
2022-12-22T01:37:05.139Z,0.00
2022-12-22T01:38:05.133Z,0.00
2022-12-22T01:39:05.111Z,0.00
2022-12-22T01:40:05.127Z,0.00
2022-12-22T01:41:05.078Z,0.00
2022-12-22T01:42:05.086Z,0.00
2022-12-22T01:43:05.138Z,0.00
2022-12-22T01:44:05.081Z,0.00
2022-12-22T01:45:05.048Z,0.00
2022-12-22T01:46:05.064Z,0.00
2022-12-22T01:47:05.010Z,0.00
2022-12-22T01:48:05.025Z,0.00
2022-12-22T01:49:05.006Z,0.00
2022-12-22T01:50:05.027Z,0.00
2022-12-22T01:51:04.992Z,0.00
2022-12-22T01:52:04.976Z,0.00
2022-12-22T01:53:04.946Z,0.00
2022-12-22T01:54:04.958Z,0.00
2022-12-22T01:55:04.981Z,0.00
2022-12-22T01:56:04.919Z,0.00
2022-12-22T01:57:04.906Z,0.00
2022-12-22T01:58:04.897Z,0.00
2022-12-22T01:59:04.923Z,0.00
2022-12-22T02:00:04.907Z,0.00
2022-12-22T02:01:04.865Z,0.00
2022-12-22T02:02:04.965Z,0.00
2022-12-22T02:03:04.876Z,0.00
2022-12-22T02:04:04.841Z,0.00
2022-12-22T02:05:04.819Z,0.00
2022-12-22T02:06:04.820Z,0.00
2022-12-22T02:07:04.799Z,0.00
2022-12-22T02:08:04.806Z,0.00
2022-12-22T02:09:04.766Z,0.00
2022-12-22T02:10:04.787Z,0.00
2022-12-22T02:11:04.748Z,0.00
2022-12-22T02:12:04.740Z,0.00
2022-12-22T02:13:04.726Z,0.00
2022-12-22T02:14:04.730Z,0.00
2022-12-22T02:15:04.709Z,0.00
2022-12-22T02:16:04.749Z,0.00
2022-12-22T02:17:04.706Z,0.00
2022-12-22T02:18:04.680Z,0.00
2022-12-22T02:19:04.668Z,0.00
2022-12-22T02:20:04.666Z,0.00
2022-12-22T02:21:04.807Z,0.00
2022-12-22T02:22:04.649Z,0.00
2022-12-22T02:23:04.618Z,0.00
2022-12-22T02:24:04.738Z,0.00
2022-12-22T02:25:04.686Z,0.00
2022-12-22T02:26:04.656Z,0.00
2022-12-22T02:27:04.633Z,0.00
2022-12-22T02:28:04.644Z,0.00
2022-12-22T02:29:04.689Z,0.00
2022-12-22T02:30:04.699Z,0.00
2022-12-22T02:31:04.669Z,0.00
2022-12-22T02:32:04.660Z,0.00
2022-12-22T02:33:09.445Z,0.00
2022-12-22T02:34:05.525Z,0.00
2022-12-22T02:35:04.774Z,0.00
2022-12-22T02:36:04.721Z,0.00
2022-12-22T02:37:04.791Z,0.00
2022-12-22T02:38:04.730Z,0.00
2022-12-22T02:39:04.766Z,0.00
2022-12-22T02:40:04.887Z,0.00
2022-12-22T02:41:04.743Z,0.00
2022-12-22T02:42:04.419Z,0.00
2022-12-22T02:43:04.468Z,0.00
2022-12-22T02:44:04.395Z,0.00
2022-12-22T02:45:04.363Z,0.00
2022-12-22T02:46:04.416Z,0.00
2022-12-22T02:47:04.498Z,0.00
2022-12-22T02:48:04.341Z,0.00
2022-12-22T02:49:04.343Z,0.00
2022-12-22T02:50:04.319Z,0.00
2022-12-22T02:51:04.291Z,0.00
2022-12-22T02:52:04.291Z,0.00
2022-12-22T02:53:04.360Z,0.00
2022-12-22T02:54:04.279Z,0.00
2022-12-22T02:55:04.265Z,0.00
2022-12-22T02:56:04.240Z,0.00
2022-12-22T02:57:04.249Z,0.00
2022-12-22T02:58:04.219Z,0.00
2022-12-22T02:59:04.214Z,0.00
2022-12-22T03:00:05.211Z,0.00
2022-12-22T03:01:04.178Z,0.00
2022-12-22T03:02:04.289Z,0.00
2022-12-22T03:03:04.587Z,0.00
2022-12-22T03:04:04.158Z,0.00
2022-12-22T03:05:04.138Z,0.00
2022-12-22T03:06:04.131Z,0.00
2022-12-22T03:07:04.118Z,0.00
2022-12-22T03:08:08.266Z,0.00
2022-12-22T03:09:04.110Z,0.00
2022-12-22T03:10:04.102Z,0.00
2022-12-22T03:11:04.067Z,0.00
2022-12-22T03:12:04.059Z,0.00
2022-12-22T03:13:04.041Z,0.00
2022-12-22T03:14:04.050Z,0.00
2022-12-22T03:15:04.026Z,0.00
2022-12-22T03:16:04.058Z,0.00
2022-12-22T03:17:04.000Z,0.00
2022-12-22T03:18:03.997Z,0.00
2022-12-22T03:19:03.981Z,0.00
2022-12-22T03:20:03.987Z,0.00
2022-12-22T03:21:03.988Z,0.00
2022-12-22T03:22:03.954Z,0.00
2022-12-22T03:23:03.928Z,0.00
2022-12-22T03:24:03.936Z,0.00
2022-12-22T03:25:03.922Z,0.00
2022-12-22T03:26:03.909Z,0.00
2022-12-22T03:27:03.879Z,0.00
2022-12-22T03:28:03.883Z,0.00
2022-12-22T03:29:03.860Z,0.00
2022-12-22T03:30:03.891Z,0.00
2022-12-22T03:31:03.889Z,0.00
2022-12-22T03:32:03.855Z,0.00
2022-12-22T03:33:03.811Z,0.00
2022-12-22T03:34:03.819Z,0.00
2022-12-22T03:35:03.793Z,0.00
2022-12-22T03:36:03.820Z,0.00
2022-12-22T03:37:03.772Z,0.00
2022-12-22T03:38:03.918Z,0.00
2022-12-22T03:39:03.752Z,0.00
2022-12-22T03:40:04.410Z,0.00
2022-12-22T03:41:03.753Z,0.00
2022-12-22T03:42:03.731Z,0.00
2022-12-22T03:43:03.700Z,0.00
2022-12-22T03:44:03.702Z,0.00
2022-12-22T03:45:03.680Z,0.00
2022-12-22T03:46:03.667Z,0.00
2022-12-22T03:47:03.738Z,0.00
2022-12-22T03:48:03.661Z,0.00
2022-12-22T03:49:03.646Z,0.00
2022-12-22T03:50:03.639Z,0.00
2022-12-22T03:51:03.619Z,0.00
2022-12-22T03:52:03.751Z,0.00
2022-12-22T03:53:03.595Z,0.00
2022-12-22T03:54:03.604Z,0.00
2022-12-22T03:55:03.573Z,0.00
2022-12-22T03:56:07.692Z,0.00
2022-12-22T03:57:03.551Z,0.00
2022-12-22T03:58:03.559Z,0.00
2022-12-22T03:59:03.519Z,0.00
2022-12-22T04:00:03.520Z,0.00
2022-12-22T04:01:03.551Z,0.00
2022-12-22T04:02:03.642Z,0.00
2022-12-22T04:03:03.560Z,0.00
2022-12-22T04:04:03.490Z,0.00
2022-12-22T04:05:03.451Z,0.00
2022-12-22T04:06:03.452Z,0.00
2022-12-22T04:07:03.439Z,0.00
2022-12-22T04:08:03.428Z,0.00
2022-12-22T04:09:03.417Z,0.00
2022-12-22T04:10:03.417Z,0.00
2022-12-22T04:11:03.391Z,0.00
2022-12-22T04:12:03.418Z,0.00
2022-12-22T04:13:03.359Z,0.00
2022-12-22T04:14:03.384Z,0.00
2022-12-22T04:15:03.337Z,0.00
2022-12-22T04:16:03.385Z,0.00
2022-12-22T04:17:03.319Z,0.00
2022-12-22T04:18:03.320Z,0.00
2022-12-22T04:19:03.325Z,0.00
2022-12-22T04:20:03.315Z,0.00
2022-12-22T04:21:03.271Z,0.00
2022-12-22T04:22:03.298Z,0.00
2022-12-22T04:23:03.258Z,0.00
2022-12-22T04:24:03.239Z,0.00
2022-12-22T04:25:03.228Z,0.00
2022-12-22T04:26:03.226Z,0.00
2022-12-22T04:27:03.223Z,0.00
2022-12-22T04:28:03.222Z,0.00
2022-12-22T04:29:03.228Z,0.00
2022-12-22T04:30:03.181Z,0.00
2022-12-22T04:31:03.166Z,0.00
2022-12-22T04:32:03.246Z,0.00
2022-12-22T04:33:03.159Z,0.00
2022-12-22T04:34:03.132Z,0.00
2022-12-22T04:35:03.119Z,0.00
2022-12-22T04:36:03.130Z,0.00
2022-12-22T04:37:13.011Z,0.00
2022-12-22T04:38:04.093Z,0.00
2022-12-22T04:39:03.091Z,0.00
2022-12-22T04:40:03.149Z,0.00
2022-12-22T04:41:03.128Z,0.00
2022-12-22T04:42:03.138Z,0.00
2022-12-22T04:43:03.232Z,0.00
2022-12-22T04:44:03.151Z,0.00
2022-12-22T04:45:03.187Z,0.00
2022-12-22T04:46:03.259Z,0.00
2022-12-22T04:47:03.203Z,0.00
2022-12-22T04:48:03.313Z,0.00
2022-12-22T04:49:03.205Z,0.00
2022-12-22T04:50:03.196Z,0.00
2022-12-22T04:51:03.273Z,0.00
2022-12-22T04:52:03.340Z,0.00
2022-12-22T04:53:03.282Z,0.00
2022-12-22T04:54:03.281Z,0.00
2022-12-22T04:55:03.268Z,0.00
2022-12-22T04:56:03.194Z,0.00
2022-12-22T04:57:03.409Z,0.00
2022-12-22T04:58:03.332Z,0.00
2022-12-22T04:59:03.320Z,0.00
2022-12-22T05:00:03.310Z,0.00
2022-12-22T05:01:03.484Z,0.00
2022-12-22T05:02:03.405Z,0.00
2022-12-22T05:03:03.611Z,0.00
2022-12-22T05:04:02.796Z,0.00
2022-12-22T05:05:02.778Z,0.00
2022-12-22T05:06:02.781Z,0.00
2022-12-22T05:07:02.760Z,0.00
2022-12-22T05:08:02.734Z,0.00
2022-12-22T05:09:02.810Z,0.00
2022-12-22T05:10:02.751Z,0.00
2022-12-22T05:11:02.726Z,0.00
2022-12-22T05:12:02.693Z,0.00
2022-12-22T05:13:02.692Z,0.00
2022-12-22T05:14:07.220Z,0.00
2022-12-22T05:15:02.677Z,0.00
2022-12-22T05:16:02.677Z,0.00
2022-12-22T05:17:02.690Z,0.00
2022-12-22T05:18:02.632Z,0.00
2022-12-22T05:19:02.633Z,0.00
2022-12-22T05:20:02.610Z,0.00
2022-12-22T05:21:02.633Z,0.00
2022-12-22T05:22:02.572Z,0.00
2022-12-22T05:23:02.595Z,0.00
2022-12-22T05:24:02.564Z,0.00
2022-12-22T05:25:02.559Z,0.00
2022-12-22T05:26:02.534Z,0.00
2022-12-22T05:27:02.541Z,0.00
2022-12-22T05:28:02.512Z,0.00
2022-12-22T05:29:02.534Z,0.00
2022-12-22T05:30:02.513Z,0.00
2022-12-22T05:31:02.516Z,0.00
2022-12-22T05:32:02.474Z,0.00
2022-12-22T05:33:02.465Z,0.00
2022-12-22T05:34:02.459Z,0.00
2022-12-22T05:35:02.462Z,0.00
2022-12-22T05:36:02.442Z,0.00
2022-12-22T05:37:02.433Z,0.00
2022-12-22T05:38:02.393Z,0.00
2022-12-22T05:39:02.410Z,0.00
2022-12-22T05:40:02.407Z,0.00
2022-12-22T05:41:04.573Z,0.00
2022-12-22T05:42:02.355Z,0.00
2022-12-22T05:43:02.413Z,0.00
2022-12-22T05:44:02.393Z,0.00
2022-12-22T05:45:02.371Z,0.00
2022-12-22T05:46:02.347Z,0.00
2022-12-22T05:47:02.320Z,0.00
2022-12-22T05:48:02.310Z,0.00
2022-12-22T05:49:02.325Z,0.00
2022-12-22T05:50:02.354Z,0.00
2022-12-22T05:51:02.385Z,0.00
2022-12-22T05:52:02.335Z,0.00
2022-12-22T05:53:02.382Z,0.00
2022-12-22T05:54:02.333Z,0.00
2022-12-22T05:55:02.614Z,0.00
2022-12-22T05:56:02.310Z,0.00
2022-12-22T05:57:02.385Z,0.00
2022-12-22T05:58:02.373Z,0.00
2022-12-22T05:59:02.312Z,0.00
2022-12-22T06:00:02.213Z,0.00
2022-12-22T06:01:02.468Z,0.00
2022-12-22T06:02:02.620Z,0.00
2022-12-22T06:03:02.625Z,0.00
2022-12-22T06:04:02.714Z,0.00
2022-12-22T06:05:02.366Z,0.00
2022-12-22T06:06:02.087Z,0.00
2022-12-22T06:07:02.117Z,0.00
2022-12-22T06:08:02.084Z,0.00
2022-12-22T06:09:02.083Z,0.00
2022-12-22T06:10:06.442Z,0.00
2022-12-22T06:11:03.093Z,0.00
2022-12-22T06:12:02.020Z,0.00
2022-12-22T06:13:02.017Z,0.00
2022-12-22T06:14:02.007Z,0.00
2022-12-22T06:15:02.020Z,0.00
2022-12-22T06:16:02.106Z,0.00
2022-12-22T06:17:01.991Z,0.00
2022-12-22T06:18:01.955Z,0.00
2022-12-22T06:19:01.956Z,0.00
2022-12-22T06:20:01.927Z,0.00
2022-12-22T06:21:01.935Z,0.00
2022-12-22T06:22:01.934Z,0.00
2022-12-22T06:23:01.894Z,0.00
2022-12-22T06:24:01.874Z,0.00
2022-12-22T06:25:01.898Z,0.00
2022-12-22T06:26:01.888Z,0.00
2022-12-22T06:27:01.875Z,0.00
2022-12-22T06:28:01.851Z,0.00
2022-12-22T06:29:02.006Z,0.00
2022-12-22T06:30:01.822Z,0.00
2022-12-22T06:31:01.855Z,0.00
2022-12-22T06:32:01.786Z,0.00
2022-12-22T06:33:01.821Z,0.00
2022-12-22T06:34:01.848Z,0.00
2022-12-22T06:35:01.909Z,0.00
2022-12-22T06:36:01.934Z,0.00
2022-12-22T06:37:01.985Z,0.00
2022-12-22T06:38:01.991Z,0.00
2022-12-22T06:39:01.947Z,0.00
2022-12-22T06:40:02.021Z,0.00
2022-12-22T06:41:02.051Z,0.00
2022-12-22T06:42:01.736Z,0.00
2022-12-22T06:43:08.042Z,0.00
2022-12-22T06:44:02.802Z,0.00
2022-12-22T06:45:01.647Z,0.00
2022-12-22T06:46:01.676Z,0.00
2022-12-22T06:47:01.640Z,0.00
2022-12-22T06:48:01.608Z,0.00
2022-12-22T06:49:01.598Z,0.00
2022-12-22T06:50:01.615Z,0.00
2022-12-22T06:51:01.748Z,0.00
2022-12-22T06:52:01.557Z,0.00
2022-12-22T06:53:01.555Z,0.00
2022-12-22T06:54:01.538Z,0.00
2022-12-22T06:55:01.571Z,0.00
2022-12-22T06:56:01.518Z,0.00
2022-12-22T06:57:01.507Z,0.00
2022-12-22T06:58:01.488Z,0.00
2022-12-22T06:59:01.494Z,0.00
2022-12-22T07:00:01.481Z,0.00
2022-12-22T07:01:01.969Z,0.00
2022-12-22T07:02:01.558Z,0.00
2022-12-22T07:03:01.686Z,0.00
2022-12-22T07:04:01.500Z,0.00
2022-12-22T07:05:01.444Z,0.00
2022-12-22T07:06:01.423Z,0.00
2022-12-22T07:07:01.417Z,0.00
2022-12-22T07:08:08.123Z,0.00
2022-12-22T07:09:02.366Z,0.00
2022-12-22T07:10:01.380Z,0.00
2022-12-22T07:11:01.354Z,0.00
2022-12-22T07:12:01.341Z,0.00
2022-12-22T07:13:01.335Z,0.00
2022-12-22T07:14:01.317Z,0.00
2022-12-22T07:15:01.336Z,0.00
2022-12-22T07:16:02.020Z,0.00
2022-12-22T07:17:01.286Z,4.00
2022-12-22T07:18:01.505Z,4.00
2022-12-22T07:19:01.263Z,4.00
2022-12-22T07:20:01.252Z,4.00
2022-12-22T07:21:01.616Z,0.00
2022-12-22T07:22:01.227Z,4.00
2022-12-22T07:23:01.259Z,4.00
2022-12-22T07:24:01.204Z,4.00
2022-12-22T07:25:01.209Z,8.00
2022-12-22T07:26:01.232Z,4.00
2022-12-22T07:27:01.168Z,4.00
2022-12-22T07:28:01.177Z,8.00
2022-12-22T07:29:01.149Z,4.00
2022-12-22T07:30:01.130Z,8.00
2022-12-22T07:31:01.254Z,8.00
2022-12-22T07:32:01.130Z,8.00
2022-12-22T07:33:01.116Z,12.00
2022-12-22T07:34:01.089Z,12.00
2022-12-22T07:35:05.169Z,8.00
2022-12-22T07:36:02.055Z,8.00
2022-12-22T07:37:01.055Z,8.00
2022-12-22T07:38:01.066Z,12.00
2022-12-22T07:39:01.039Z,12.00
2022-12-22T07:40:01.039Z,12.00
2022-12-22T07:41:04.953Z,12.00
2022-12-22T07:42:00.999Z,12.00
2022-12-22T07:43:00.986Z,12.00
2022-12-22T07:44:00.977Z,12.00
2022-12-22T07:45:01.178Z,12.00
2022-12-22T07:46:01.035Z,12.00
2022-12-22T07:47:01.060Z,16.00
2022-12-22T07:48:00.928Z,16.00
2022-12-22T07:49:00.931Z,16.00
2022-12-22T07:50:00.939Z,16.00
2022-12-22T07:51:00.920Z,16.00
2022-12-22T07:52:00.886Z,16.00
2022-12-22T07:53:00.887Z,20.00
2022-12-22T07:54:00.881Z,20.00
2022-12-22T07:55:00.859Z,20.00
2022-12-22T07:56:00.848Z,20.00
2022-12-22T07:57:00.840Z,20.00
2022-12-22T07:58:00.846Z,20.00
2022-12-22T07:59:00.830Z,20.00
2022-12-22T08:00:00.807Z,20.00
2022-12-22T08:01:00.794Z,24.00
2022-12-22T08:02:00.876Z,20.00
2022-12-22T08:03:01.021Z,24.00
2022-12-22T08:04:00.753Z,24.00
2022-12-22T08:05:00.794Z,28.00
2022-12-22T08:06:00.747Z,32.00
2022-12-22T08:07:00.722Z,32.00
2022-12-22T08:08:00.707Z,32.00
2022-12-22T08:09:00.703Z,32.00
2022-12-22T08:10:00.702Z,32.00
2022-12-22T08:11:00.680Z,32.00
2022-12-22T08:12:00.650Z,28.00
2022-12-22T08:13:00.681Z,28.00
2022-12-22T08:14:01.924Z,32.00
2022-12-22T08:15:00.636Z,32.00
2022-12-22T08:16:00.658Z,32.00
2022-12-22T08:17:00.615Z,36.00
2022-12-22T08:18:01.362Z,44.00
2022-12-22T08:19:00.592Z,48.00
2022-12-22T08:20:00.571Z,52.00
2022-12-22T08:21:00.585Z,56.00
2022-12-22T08:22:00.562Z,64.00
2022-12-22T08:23:00.546Z,72.00
2022-12-22T08:24:00.518Z,76.00
2022-12-22T08:25:00.556Z,80.00
2022-12-22T08:26:00.510Z,80.00
2022-12-22T08:27:00.519Z,84.00
2022-12-22T08:28:00.477Z,96.00
2022-12-22T08:29:00.476Z,108.00
2022-12-22T08:30:00.457Z,128.00
2022-12-22T08:31:00.530Z,128.00
2022-12-22T08:32:00.481Z,128.00
2022-12-22T08:33:00.432Z,124.00
2022-12-22T08:34:00.398Z,116.00
2022-12-22T08:35:00.415Z,112.00
2022-12-22T08:36:07.524Z,104.00
2022-12-22T08:37:01.395Z,100.00
2022-12-22T08:38:00.411Z,88.00
2022-12-22T08:39:00.388Z,84.00
2022-12-22T08:40:00.354Z,88.00
2022-12-22T08:41:00.354Z,88.00
2022-12-22T08:42:00.316Z,88.00
2022-12-22T08:43:00.338Z,84.00
2022-12-22T08:44:00.314Z,88.00
2022-12-22T08:45:00.294Z,88.00
2022-12-22T08:46:00.277Z,80.00
2022-12-22T08:47:00.332Z,76.00
2022-12-22T08:48:00.262Z,68.00
2022-12-22T08:49:00.271Z,64.00
2022-12-22T08:50:00.225Z,64.00
2022-12-22T08:51:00.233Z,60.00
2022-12-22T08:52:00.199Z,56.00
2022-12-22T08:53:00.199Z,56.00
2022-12-22T08:54:05.506Z,60.00
2022-12-22T08:55:01.176Z,64.00
2022-12-22T08:56:00.160Z,64.00
2022-12-22T08:57:00.160Z,68.00
2022-12-22T08:58:00.141Z,72.00
2022-12-22T08:59:00.158Z,76.00
2022-12-22T09:00:00.135Z,84.00
2022-12-22T09:01:00.194Z,88.00
2022-12-22T09:02:00.315Z,84.00
2022-12-22T09:03:00.326Z,84.00
2022-12-22T09:04:00.730Z,84.00
2022-12-22T09:05:00.083Z,84.00
2022-12-22T09:06:00.075Z,88.00
2022-12-22T09:07:00.070Z,92.00
2022-12-22T09:08:00.055Z,96.00
2022-12-22T09:09:00.080Z,100.00
2022-12-22T09:10:00.016Z,108.00
2022-12-22T09:11:00.005Z,116.00
2022-12-22T09:11:59.985Z,116.00
2022-12-22T09:12:59.985Z,108.00
2022-12-22T09:13:59.964Z,108.00
2022-12-22T09:14:59.953Z,104.00
2022-12-22T09:15:59.988Z,116.00
2022-12-22T09:17:00.008Z,128.00
2022-12-22T09:17:59.932Z,124.00
2022-12-22T09:18:59.913Z,120.00
2022-12-22T09:19:59.898Z,120.00
2022-12-22T09:20:59.888Z,120.00
2022-12-22T09:21:59.880Z,128.00
2022-12-22T09:22:59.851Z,144.00
2022-12-22T09:23:59.888Z,148.00
2022-12-22T09:24:59.825Z,152.00
2022-12-22T09:25:59.822Z,164.00
2022-12-22T09:26:59.846Z,160.00
2022-12-22T09:27:59.801Z,176.00
2022-12-22T09:28:59.794Z,192.00
2022-12-22T09:29:59.792Z,212.00
2022-12-22T09:30:59.774Z,216.00
2022-12-22T09:31:59.848Z,220.00
2022-12-22T09:32:59.751Z,240.00
2022-12-22T09:33:59.748Z,264.00
2022-12-22T09:34:59.720Z,288.00
2022-12-22T09:35:59.720Z,308.00
2022-12-22T09:36:59.693Z,312.00
2022-12-22T09:37:59.697Z,316.00
2022-12-22T09:38:59.694Z,320.00
2022-12-22T09:39:59.686Z,308.00
2022-12-22T09:40:59.660Z,292.00
2022-12-22T09:41:59.644Z,288.00
2022-12-22T09:42:59.628Z,264.00
2022-12-22T09:43:59.623Z,260.00
2022-12-22T09:44:59.631Z,264.00
2022-12-22T09:45:59.624Z,272.00
2022-12-22T09:46:59.701Z,280.00
2022-12-22T09:47:59.570Z,296.00
2022-12-22T09:48:59.565Z,304.00
2022-12-22T09:49:59.548Z,312.00
2022-12-22T09:50:59.564Z,328.00
2022-12-22T09:51:59.543Z,348.00
2022-12-22T09:52:59.547Z,360.00
2022-12-22T09:53:59.509Z,324.00
2022-12-22T09:54:59.729Z,268.00
2022-12-22T09:55:59.502Z,236.00
2022-12-22T09:56:59.518Z,228.00
2022-12-22T09:57:59.470Z,236.00
2022-12-22T09:58:59.469Z,264.00
2022-12-22T09:59:59.465Z,272.00
2022-12-22T10:00:59.476Z,260.00
2022-12-22T10:01:59.508Z,256.00
2022-12-22T10:02:59.426Z,252.00
2022-12-22T10:04:00.956Z,264.00
2022-12-22T10:04:59.393Z,300.00
2022-12-22T10:05:59.386Z,244.00
2022-12-22T10:06:59.445Z,224.00
2022-12-22T10:07:59.364Z,216.00
2022-12-22T10:08:59.334Z,228.00
2022-12-22T10:09:59.378Z,208.00
2022-12-22T10:10:59.318Z,204.00
2022-12-22T10:11:59.316Z,208.00
2022-12-22T10:12:59.296Z,244.00
2022-12-22T10:13:59.291Z,296.00
2022-12-22T10:14:59.281Z,328.00
2022-12-22T10:15:59.283Z,384.00
2022-12-22T10:16:59.284Z,420.00
2022-12-22T10:17:59.544Z,484.00
2022-12-22T10:18:59.225Z,448.00
2022-12-22T10:19:59.211Z,384.00
2022-12-22T10:20:59.433Z,352.00
2022-12-22T10:21:59.191Z,328.00
2022-12-22T10:22:59.277Z,292.00
2022-12-22T10:23:59.172Z,272.00
2022-12-22T10:24:59.172Z,284.00
2022-12-22T10:27:00.146Z,352.00
2022-12-22T10:27:59.152Z,396.00
2022-12-22T10:28:59.123Z,436.00
2022-12-22T10:29:59.110Z,324.00
2022-12-22T10:30:59.092Z,276.00
2022-12-22T10:31:59.169Z,260.00
2022-12-22T10:32:59.052Z,280.00
2022-12-22T10:33:59.060Z,320.00
2022-12-22T10:34:59.035Z,444.00
2022-12-22T10:35:59.055Z,432.00
2022-12-22T10:36:59.016Z,368.00
2022-12-22T10:37:59.020Z,292.00
2022-12-22T10:38:58.992Z,244.00
2022-12-22T10:39:58.989Z,220.00
2022-12-22T10:41:02.456Z,204.00
2022-12-22T10:41:58.963Z,208.00
2022-12-22T10:42:58.951Z,264.00
2022-12-22T10:43:58.999Z,252.00
2022-12-22T10:44:58.924Z,260.00
2022-12-22T10:45:58.980Z,272.00
2022-12-22T10:46:58.910Z,288.00
2022-12-22T10:47:58.899Z,352.00
2022-12-22T10:48:58.873Z,376.00
2022-12-22T10:50:29.771Z,412.00
2022-12-22T10:51:29.760Z,456.00
2022-12-22T10:52:32.041Z,400.00
2022-12-22T10:53:29.711Z,368.00
2022-12-22T10:54:29.737Z,320.00
2022-12-22T10:55:29.695Z,308.00
2022-12-22T10:56:29.703Z,276.00
2022-12-22T10:57:29.699Z,244.00
2022-12-22T10:58:29.672Z,208.00
2022-12-22T10:59:29.653Z,192.00
2022-12-22T11:00:29.653Z,184.00
2022-12-22T11:01:29.888Z,200.00
2022-12-22T11:02:29.839Z,172.00
2022-12-22T11:03:29.829Z,140.00
2022-12-22T11:04:29.604Z,164.00
2022-12-22T11:05:29.607Z,184.00
2022-12-22T11:06:29.600Z,208.00
2022-12-22T11:07:29.565Z,244.00
2022-12-22T11:08:29.571Z,212.00
2022-12-22T11:09:34.591Z,168.00
2022-12-22T11:10:30.542Z,204.00
2022-12-22T11:11:29.516Z,260.00
2022-12-22T11:12:29.512Z,252.00
2022-12-22T11:13:29.510Z,240.00
2022-12-22T11:14:29.495Z,248.00
2022-12-22T11:15:29.494Z,276.00
2022-12-22T11:16:29.553Z,352.00
2022-12-22T11:17:29.453Z,352.00
2022-12-22T11:18:29.473Z,396.00
2022-12-22T11:19:29.431Z,468.00
2022-12-22T11:20:29.449Z,508.00
2022-12-22T11:21:29.404Z,484.00
2022-12-22T11:22:29.442Z,444.00
2022-12-22T11:23:29.421Z,452.00
2022-12-22T11:24:29.438Z,484.00
2022-12-22T11:25:29.392Z,476.00
2022-12-22T11:26:29.357Z,556.00
2022-12-22T11:27:29.352Z,608.00
2022-12-22T11:28:29.353Z,664.00
2022-12-22T11:29:29.338Z,716.00
2022-12-22T11:30:29.317Z,768.00
2022-12-22T11:31:29.380Z,800.00
2022-12-22T11:32:29.297Z,808.00
2022-12-22T11:33:29.272Z,808.00
2022-12-22T11:34:29.331Z,776.00
2022-12-22T11:35:29.285Z,740.00
2022-12-22T11:36:29.368Z,720.00
2022-12-22T11:37:29.395Z,752.00
2022-12-22T11:38:29.380Z,756.00
2022-12-22T11:39:29.454Z,764.00
2022-12-22T11:40:29.476Z,780.00
2022-12-22T11:41:29.437Z,800.00
2022-12-22T11:42:29.425Z,884.00
2022-12-22T11:43:29.155Z,1000.00
2022-12-22T11:44:29.154Z,1132.00
2022-12-22T11:45:29.146Z,972.00
2022-12-22T11:46:29.193Z,916.00
2022-12-22T11:47:29.122Z,872.00
2022-12-22T11:48:29.115Z,980.00
2022-12-22T11:49:29.093Z,888.00
2022-12-22T11:51:02.303Z,836.00
2022-12-22T11:51:30.080Z,960.00
2022-12-22T11:52:29.067Z,1056.00
2022-12-22T11:53:29.051Z,1264.00
2022-12-22T11:54:29.047Z,1148.00
2022-12-22T11:55:29.054Z,1180.00
2022-12-22T11:56:29.028Z,1228.00
2022-12-22T11:57:29.037Z,904.00
2022-12-22T11:58:29.009Z,1292.00
2022-12-22T11:59:28.997Z,1184.00
2022-12-22T12:00:56.060Z,1220.00
2022-12-22T12:01:30.119Z,1016.00
2022-12-22T12:02:29.045Z,1076.00
2022-12-22T12:03:29.032Z,1116.00
2022-12-22T12:04:28.998Z,1000.00
2022-12-22T12:05:28.927Z,636.00
2022-12-22T12:06:28.936Z,616.00
2022-12-22T12:07:28.906Z,448.00
2022-12-22T12:08:28.895Z,452.00
2022-12-22T12:09:28.888Z,472.00
2022-12-22T12:10:28.879Z,616.00
2022-12-22T12:11:28.867Z,752.00
2022-12-22T12:12:28.873Z,620.00
2022-12-22T12:13:34.743Z,636.00
2022-12-22T12:14:29.829Z,588.00
2022-12-22T12:15:28.817Z,608.00
2022-12-22T12:16:28.853Z,600.00
2022-12-22T12:17:28.773Z,548.00
2022-12-22T12:18:28.808Z,592.00
2022-12-22T12:19:29.156Z,632.00
2022-12-22T12:20:28.770Z,648.00
2022-12-22T12:21:28.726Z,708.00
2022-12-22T12:22:28.730Z,844.00
2022-12-22T12:23:28.712Z,888.00
2022-12-22T12:24:28.705Z,848.00
2022-12-22T12:25:28.690Z,876.00
2022-12-22T12:26:28.699Z,948.00
2022-12-22T12:27:28.685Z,1424.00
2022-12-22T12:28:28.665Z,1148.00
2022-12-22T12:29:28.647Z,1260.00
2022-12-22T12:30:37.996Z,1124.00
2022-12-22T12:31:29.643Z,1136.00
2022-12-22T12:32:28.638Z,772.00
2022-12-22T12:33:28.594Z,652.00
2022-12-22T12:34:28.601Z,652.00
2022-12-22T12:35:28.581Z,744.00
2022-12-22T12:36:28.567Z,820.00
2022-12-22T12:37:28.578Z,748.00
2022-12-22T12:39:29.538Z,676.00
2022-12-22T12:40:28.527Z,604.00
2022-12-22T12:41:28.544Z,560.00
2022-12-22T12:42:28.513Z,560.00
2022-12-22T12:43:28.506Z,564.00
2022-12-22T12:44:28.492Z,548.00
2022-12-22T12:45:28.457Z,560.00
2022-12-22T12:46:28.542Z,572.00
2022-12-22T12:47:28.477Z,860.00
2022-12-22T12:48:28.438Z,564.00
2022-12-22T12:49:28.419Z,616.00
2022-12-22T12:50:28.419Z,884.00
2022-12-22T12:51:28.398Z,616.00
2022-12-22T12:52:28.418Z,820.00
2022-12-22T12:53:28.664Z,904.00
2022-12-22T12:54:28.366Z,920.00
2022-12-22T12:55:32.264Z,908.00
2022-12-22T12:56:28.351Z,900.00
2022-12-22T12:57:28.352Z,912.00
2022-12-22T12:58:28.355Z,948.00
2022-12-22T12:59:28.306Z,1024.00
2022-12-22T13:00:28.344Z,1092.00